createdAt,value
2019-05-10T00:01:58.548Z,62.63
2019-05-10T00:04:47.128Z,63.14
2019-05-10T00:07:34.589Z,63.91
2019-05-10T00:10:05.712Z,64.40
2019-05-10T00:12:37.667Z,64.19
2019-05-10T00:15:09.837Z,64.38
2019-05-10T00:17:39.254Z,64.58
2019-05-10T00:20:09.203Z,64.26
2019-05-10T00:22:38.601Z,64.22
2019-05-10T00:25:09.555Z,64.29
2019-05-10T00:27:38.963Z,64.36
2019-05-10T00:30:11.965Z,64.65
2019-05-10T00:32:42.622Z,64.78
2019-05-10T00:35:12.192Z,65.00
2019-05-10T00:37:41.553Z,64.60
2019-05-10T00:40:11.239Z,64.61
2019-05-10T00:42:43.061Z,64.24
2019-05-10T00:45:14.799Z,63.96
2019-05-10T00:47:44.178Z,64.37
2019-05-10T00:50:13.688Z,63.92
2019-05-10T00:52:43.120Z,64.47
2019-05-10T00:55:18.796Z,63.86
2019-05-10T00:57:46.952Z,62.95
2019-05-10T01:00:17.717Z,62.92
2019-05-10T01:02:48.175Z,62.89
2019-05-10T01:05:20.670Z,62.28
2019-05-10T01:07:49.455Z,62.56
2019-05-10T01:10:19.916Z,63.02
2019-05-10T01:12:51.576Z,63.44
2019-05-10T01:15:21.611Z,63.17
2019-05-10T01:17:51.968Z,63.09
2019-05-10T01:20:22.390Z,62.21
2019-05-10T01:22:54.704Z,61.88
2019-05-10T01:25:34.481Z,61.67
2019-05-10T01:27:57.816Z,61.93
2019-05-10T01:30:27.177Z,61.78
2019-05-10T01:32:56.445Z,61.89
2019-05-10T01:35:26.807Z,62.03
2019-05-10T01:37:56.198Z,62.23
2019-05-10T01:40:25.550Z,62.40
2019-05-10T01:42:56.032Z,62.69
2019-05-10T01:45:26.429Z,62.80
2019-05-10T01:47:56.561Z,62.99
2019-05-10T01:50:26.932Z,62.85
2019-05-10T01:53:00.468Z,63.09
2019-05-10T01:55:30.991Z,62.94
2019-05-10T01:58:00.375Z,63.14
2019-05-10T02:00:30.968Z,63.27
2019-05-10T02:03:04.073Z,63.27
2019-05-10T02:05:38.027Z,63.05
2019-05-10T02:08:07.654Z,62.89
2019-05-10T02:10:36.155Z,62.87
2019-05-10T02:13:05.531Z,62.72
2019-05-10T02:15:34.948Z,63.51
2019-05-10T02:18:05.460Z,63.51
2019-05-10T02:20:34.940Z,63.48
2019-05-10T02:23:07.105Z,64.00
2019-05-10T02:25:37.617Z,64.74
2019-05-10T02:28:07.091Z,65.23
2019-05-10T02:30:38.971Z,65.36
2019-05-10T02:33:08.355Z,65.22
2019-05-10T02:35:38.639Z,64.83
2019-05-10T02:38:08.135Z,65.31
2019-05-10T02:40:38.603Z,64.98
2019-05-10T02:43:07.471Z,64.49
2019-05-10T02:45:37.837Z,64.18
2019-05-10T02:48:09.263Z,63.77
2019-05-10T02:50:41.173Z,63.82
2019-05-10T02:53:11.359Z,64.03
2019-05-10T02:55:43.133Z,63.72
2019-05-10T02:58:15.312Z,63.56
2019-05-10T03:00:48.746Z,63.23
2019-05-10T03:03:18.818Z,63.29
2019-05-10T03:05:52.721Z,63.13
2019-05-10T03:08:25.389Z,63.06
2019-05-10T03:10:59.240Z,63.28
2019-05-10T03:13:33.603Z,63.56
2019-05-10T03:16:04.367Z,63.72
2019-05-10T03:18:35.902Z,64.63
2019-05-10T03:21:08.104Z,65.41
2019-05-10T03:23:38.464Z,65.38
2019-05-10T03:26:07.849Z,65.80
2019-05-10T03:28:39.377Z,66.45
2019-05-10T03:31:08.529Z,66.46
2019-05-10T03:33:38.081Z,66.04
2019-05-10T03:36:08.144Z,67.07
2019-05-10T03:38:38.922Z,66.40
2019-05-10T03:41:08.322Z,67.09
2019-05-10T03:43:38.678Z,66.64
2019-05-10T03:46:08.302Z,66.48
2019-05-10T03:48:38.982Z,67.75
2019-05-10T03:51:09.478Z,68.84
2019-05-10T03:53:38.847Z,69.10
2019-05-10T03:56:08.349Z,69.16
2019-05-10T03:58:37.780Z,68.37
2019-05-10T04:01:08.172Z,68.14
2019-05-10T04:03:38.474Z,67.26
2019-05-10T04:06:10.554Z,67.32
2019-05-10T04:08:40.973Z,67.61
2019-05-10T04:11:11.375Z,67.71
2019-05-10T04:13:42.512Z,67.86
2019-05-10T04:16:11.863Z,68.35
2019-05-10T04:18:42.267Z,67.81
2019-05-10T04:21:12.676Z,66.21
2019-05-10T04:23:43.077Z,64.79
2019-05-10T04:26:13.383Z,63.33
2019-05-10T04:28:42.753Z,62.13
2019-05-10T04:31:12.143Z,60.73
2019-05-10T04:33:44.594Z,59.79
2019-05-10T04:36:14.015Z,57.07
2019-05-10T04:38:45.657Z,55.92
2019-05-10T04:41:18.114Z,55.85
2019-05-10T04:43:47.546Z,54.20
2019-05-10T04:46:20.602Z,50.34
2019-05-10T04:48:50.102Z,48.12
2019-05-10T04:51:22.450Z,38.25
2019-05-10T04:53:54.940Z,34.12
2019-05-10T04:56:25.347Z,30.72
2019-05-10T04:58:54.717Z,28.11
2019-05-10T05:01:24.114Z,26.41
2019-05-10T05:03:53.800Z,25.08
2019-05-10T05:06:25.599Z,24.13
2019-05-10T05:08:56.247Z,23.55
2019-05-10T05:11:26.631Z,23.70
2019-05-10T05:13:55.944Z,23.15
2019-05-10T05:16:25.408Z,22.61
2019-05-10T05:18:55.762Z,23.64
2019-05-10T05:21:25.062Z,23.81
2019-05-10T05:23:55.437Z,23.66
2019-05-10T05:26:24.945Z,20.37
2019-05-10T05:28:57.485Z,26.85
2019-05-10T05:31:26.859Z,35.80
2019-05-10T05:33:59.091Z,40.60
2019-05-10T05:36:28.434Z,43.65
2019-05-10T05:38:58.841Z,44.83
2019-05-10T05:41:31.857Z,42.88
2019-05-10T05:44:01.124Z,30.29
2019-05-10T05:46:30.895Z,25.53
2019-05-10T05:49:00.273Z,26.97
2019-05-10T05:51:30.965Z,22.49
2019-05-10T05:54:04.339Z,19.69
2019-05-10T05:56:34.980Z,18.73
2019-05-10T05:59:09.009Z,17.83
2019-05-10T06:01:39.545Z,16.76
2019-05-10T06:04:12.715Z,16.91
2019-05-10T06:06:41.128Z,17.09
2019-05-10T06:09:11.701Z,16.42
2019-05-10T06:11:42.641Z,15.28
2019-05-10T06:14:12.876Z,14.67
2019-05-10T06:16:45.265Z,15.62
2019-05-10T06:19:20.528Z,15.85
2019-05-10T06:21:45.547Z,19.75
2019-05-10T06:24:16.938Z,22.32
2019-05-10T06:26:47.575Z,22.68
2019-05-10T06:29:19.877Z,25.70
2019-05-10T06:31:50.055Z,18.68
2019-05-10T06:34:20.363Z,17.61
2019-05-10T06:36:49.774Z,23.24
2019-05-10T06:39:20.122Z,28.45
2019-05-10T06:41:55.595Z,21.10
2019-05-10T06:44:31.051Z,21.33
2019-05-10T06:47:02.177Z,18.66
2019-05-10T06:49:29.477Z,20.33
2019-05-10T06:51:59.105Z,13.57
2019-05-10T06:54:28.520Z,12.65
2019-05-10T06:57:00.486Z,12.19
2019-05-10T06:59:30.886Z,11.80
2019-05-10T07:02:01.652Z,10.61
2019-05-10T07:04:36.024Z,9.55
2019-05-10T07:07:03.262Z,9.13
2019-05-10T07:10:00.470Z,13.90
2019-05-10T07:12:09.393Z,11.10
2019-05-10T07:14:44.980Z,9.01
2019-05-10T07:17:09.732Z,12.73
2019-05-10T07:19:53.152Z,15.13
2019-05-10T07:22:13.775Z,18.65
2019-05-10T07:24:45.810Z,15.17
2019-05-10T07:27:16.106Z,9.89
2019-05-10T07:29:46.661Z,8.63
2019-05-10T07:32:21.183Z,11.38
2019-05-10T07:34:48.151Z,13.25
2019-05-10T07:37:19.404Z,14.35
2019-05-10T07:39:49.972Z,12.88
2019-05-10T07:42:21.880Z,9.75
2019-05-10T07:44:53.072Z,12.18
2019-05-10T07:47:30.250Z,18.87
2019-05-10T07:49:56.817Z,19.71
2019-05-10T07:52:27.266Z,22.45
2019-05-10T07:54:58.140Z,25.49
2019-05-10T07:57:27.210Z,23.88
2019-05-10T07:59:57.700Z,24.64
2019-05-10T08:02:28.889Z,25.25
2019-05-10T08:04:58.603Z,23.77
2019-05-10T08:07:29.548Z,22.05
2019-05-10T08:09:59.478Z,12.06
2019-05-10T08:12:29.017Z,8.73
2019-05-10T08:14:59.564Z,12.93
2019-05-10T08:17:29.542Z,16.67
2019-05-10T08:20:02.111Z,16.55
2019-05-10T08:22:41.392Z,13.74
2019-05-10T08:25:09.327Z,16.05
2019-05-10T08:27:50.072Z,11.20
2019-05-10T08:30:28.064Z,10.69
2019-05-10T08:32:53.045Z,19.89
2019-05-10T08:35:25.010Z,19.64
2019-05-10T08:37:57.566Z,16.67
2019-05-10T08:40:36.736Z,21.05
2019-05-10T08:43:08.491Z,19.27
2019-05-10T08:45:38.991Z,24.29
2019-05-10T08:48:07.847Z,29.12
2019-05-10T08:50:49.540Z,31.19
2019-05-10T08:53:11.147Z,32.07
2019-05-10T08:55:43.286Z,33.45
2019-05-10T08:58:13.220Z,33.62
2019-05-10T09:00:53.795Z,31.98
2019-05-10T09:03:18.508Z,29.78
2019-05-10T09:05:48.324Z,29.88
2019-05-10T09:08:20.395Z,31.35
2019-05-10T09:10:53.745Z,32.04
2019-05-10T09:13:28.807Z,27.29
2019-05-10T09:15:57.601Z,24.44
2019-05-10T09:18:30.390Z,22.47
2019-05-10T09:21:08.575Z,25.42
2019-05-10T09:23:32.687Z,27.43
2019-05-10T09:26:10.112Z,25.19
2019-05-10T09:28:33.565Z,28.03
2019-05-10T09:31:17.176Z,30.75
2019-05-10T09:33:41.030Z,33.26
2019-05-10T09:36:09.042Z,33.92
2019-05-10T09:38:44.153Z,34.89
2019-05-10T09:41:13.821Z,35.18
2019-05-10T09:43:48.812Z,34.82
2019-05-10T09:46:18.288Z,34.59
2019-05-10T09:48:54.559Z,34.71
2019-05-10T09:51:28.012Z,34.23
2019-05-10T09:53:49.973Z,33.89
2019-05-10T09:56:20.329Z,33.70
2019-05-10T09:58:49.851Z,33.29
2019-05-10T10:01:21.799Z,27.17
2019-05-10T10:03:54.884Z,22.54
2019-05-10T10:06:25.300Z,23.20
2019-05-10T10:08:57.774Z,26.07
2019-05-10T10:11:29.761Z,25.54
2019-05-10T10:14:02.116Z,27.51
2019-05-10T10:16:32.344Z,27.04
2019-05-10T10:19:01.707Z,26.45
2019-05-10T10:21:35.510Z,25.77
2019-05-10T10:24:12.210Z,24.82
2019-05-10T10:26:38.011Z,25.99
2019-05-10T10:29:11.580Z,26.78
2019-05-10T10:31:51.424Z,27.93
2019-05-10T10:34:13.560Z,28.16
2019-05-10T10:36:44.255Z,27.01
2019-05-10T10:39:13.877Z,27.05
2019-05-10T10:41:43.308Z,27.30
2019-05-10T10:44:12.597Z,27.03
2019-05-10T10:46:48.031Z,27.73
2019-05-10T10:49:17.764Z,27.42
2019-05-10T10:51:47.390Z,27.54
2019-05-10T10:54:22.399Z,27.68
2019-05-10T10:56:53.876Z,28.30
2019-05-10T10:59:24.395Z,27.72
2019-05-10T11:02:25.138Z,27.78
2019-05-10T11:04:27.132Z,27.91
2019-05-10T11:07:09.816Z,28.00
2019-05-10T11:09:31.165Z,27.65
2019-05-10T11:12:01.841Z,26.89
2019-05-10T11:14:40.095Z,27.96
2019-05-10T11:17:04.849Z,28.32
2019-05-10T11:19:37.248Z,28.30
2019-05-10T11:22:09.670Z,28.32
2019-05-10T11:24:40.035Z,29.51
2019-05-10T11:27:15.194Z,28.90
2019-05-10T11:29:44.394Z,30.10
2019-05-10T11:32:16.955Z,29.75
2019-05-10T11:34:47.297Z,30.06
2019-05-10T11:37:18.555Z,31.41
2019-05-10T11:39:50.502Z,32.72
2019-05-10T11:42:21.367Z,34.14
2019-05-10T11:44:54.635Z,35.81
2019-05-10T11:47:26.884Z,34.40
2019-05-10T11:49:54.339Z,34.19
2019-05-10T11:52:29.168Z,32.49
2019-05-10T11:54:57.441Z,31.03
2019-05-10T11:57:26.739Z,31.44
2019-05-10T11:59:57.137Z,31.71
2019-05-10T12:02:37.921Z,32.44
2019-05-10T12:05:03.602Z,32.21
2019-05-10T12:07:38.743Z,29.87
2019-05-10T12:10:08.458Z,30.02
2019-05-10T12:12:50.542Z,32.14
2019-05-10T12:15:04.623Z,30.02
2019-05-10T12:17:35.320Z,29.60
2019-05-10T12:20:07.859Z,29.70
2019-05-10T12:22:40.807Z,29.79
2019-05-10T12:25:31.873Z,29.16
2019-05-10T12:27:48.736Z,29.84
2019-05-10T12:30:17.327Z,29.52
2019-05-10T12:32:57.133Z,29.29
2019-05-10T12:35:21.288Z,29.38
2019-05-10T12:37:53.990Z,29.35
2019-05-10T12:40:24.162Z,29.34
2019-05-10T12:42:53.780Z,30.83
2019-05-10T12:45:24.345Z,30.79
2019-05-10T12:47:56.943Z,31.65
2019-05-10T12:50:27.778Z,33.26
2019-05-10T12:53:14.431Z,33.90
2019-05-10T12:55:31.608Z,34.06
2019-05-10T12:58:05.255Z,34.02
2019-05-10T13:00:36.090Z,34.53
2019-05-10T13:03:12.903Z,35.82
2019-05-10T13:05:51.892Z,36.89
2019-05-10T13:08:11.821Z,36.73
2019-05-10T13:10:44.196Z,36.82
2019-05-10T13:13:17.455Z,37.15
2019-05-10T13:15:50.480Z,34.29
2019-05-10T13:18:23.291Z,33.95
2019-05-10T13:20:53.215Z,34.58
2019-05-10T13:23:23.616Z,37.14
2019-05-10T13:25:53.018Z,36.18
2019-05-10T13:28:23.278Z,35.85
2019-05-10T13:30:52.683Z,34.37
2019-05-10T13:33:28.935Z,34.31
2019-05-10T13:35:56.527Z,34.63
2019-05-10T13:38:25.397Z,35.19
2019-05-10T13:40:56.164Z,35.26
2019-05-10T13:43:28.162Z,36.66
2019-05-10T13:45:57.065Z,36.29
2019-05-10T13:48:27.573Z,35.20
2019-05-10T13:50:57.054Z,35.40
2019-05-10T13:53:27.601Z,35.58
2019-05-10T13:55:57.015Z,37.34
2019-05-10T13:58:26.420Z,39.41
2019-05-10T14:00:55.958Z,39.47
2019-05-10T14:03:25.342Z,39.48
2019-05-10T14:05:56.866Z,40.73
2019-05-10T14:08:30.915Z,40.44
2019-05-10T14:11:01.507Z,39.94
2019-05-10T14:13:35.645Z,39.21
2019-05-10T14:16:04.173Z,37.88
2019-05-10T14:18:36.243Z,39.82
2019-05-10T14:21:05.702Z,39.98
2019-05-10T14:23:35.832Z,39.38
2019-05-10T14:26:09.411Z,39.75
2019-05-10T14:28:36.998Z,39.61
2019-05-10T14:31:09.935Z,40.07
2019-05-10T14:33:39.309Z,41.09
2019-05-10T14:36:09.767Z,41.55
2019-05-10T14:38:39.041Z,41.26
2019-05-10T14:41:10.749Z,42.52
2019-05-10T14:43:41.621Z,42.37
2019-05-10T14:46:13.964Z,41.71
2019-05-10T14:48:44.194Z,40.38
2019-05-10T14:51:14.391Z,38.95
2019-05-10T14:53:44.698Z,37.10
2019-05-10T14:56:15.331Z,37.42
2019-05-10T14:58:44.791Z,36.45
2019-05-10T15:01:14.180Z,37.07
2019-05-10T15:03:45.746Z,36.78
2019-05-10T15:06:13.912Z,37.03
2019-05-10T15:08:44.410Z,36.77
2019-05-10T15:11:14.713Z,36.72
2019-05-10T15:13:45.148Z,36.97
2019-05-10T15:16:25.711Z,36.11
2019-05-10T15:18:49.807Z,36.41
2019-05-10T15:21:19.304Z,37.05
2019-05-10T15:23:49.883Z,37.96
2019-05-10T15:26:19.170Z,39.34
2019-05-10T15:28:49.864Z,39.34
2019-05-10T15:31:23.794Z,39.38
2019-05-10T15:33:50.498Z,38.52
2019-05-10T15:36:23.544Z,37.83
2019-05-10T15:38:53.931Z,38.09
2019-05-10T15:41:24.111Z,38.94
2019-05-10T15:43:55.048Z,38.63
2019-05-10T15:46:35.447Z,38.20
2019-05-10T15:49:01.448Z,38.88
2019-05-10T15:51:36.243Z,38.74
2019-05-10T15:54:07.754Z,38.57
2019-05-10T15:56:41.807Z,39.03
2019-05-10T15:59:12.851Z,39.18
2019-05-10T16:01:45.189Z,39.03
2019-05-10T16:04:13.824Z,38.96
2019-05-10T16:06:44.269Z,38.61
2019-05-10T16:09:18.049Z,39.54
2019-05-10T16:11:47.548Z,40.51
2019-05-10T16:14:20.128Z,41.84
2019-05-10T16:16:50.993Z,42.26
2019-05-10T16:19:21.356Z,43.25
2019-05-10T16:21:54.312Z,43.87
2019-05-10T16:24:26.329Z,43.47
2019-05-10T16:27:00.152Z,42.87
2019-05-10T16:29:26.750Z,41.89
2019-05-10T16:31:56.022Z,40.71
2019-05-10T16:34:26.422Z,39.12
2019-05-10T16:36:57.013Z,40.31
2019-05-10T16:39:27.526Z,41.01
2019-05-10T16:41:57.838Z,41.65
2019-05-10T16:44:29.017Z,42.44
2019-05-10T16:46:58.490Z,43.18
2019-05-10T16:49:27.950Z,43.70
2019-05-10T16:51:56.836Z,43.69
2019-05-10T16:54:27.790Z,43.72
2019-05-10T16:57:01.102Z,43.55
2019-05-10T16:59:35.057Z,43.79
2019-05-10T17:02:06.274Z,43.55
2019-05-10T17:04:39.635Z,42.75
2019-05-10T17:07:12.931Z,42.53
2019-05-10T17:09:41.420Z,42.38
2019-05-10T17:12:13.764Z,42.74
2019-05-10T17:14:44.274Z,43.13
2019-05-10T17:17:16.436Z,43.21
2019-05-10T17:19:48.635Z,43.92
2019-05-10T17:22:17.904Z,43.38
2019-05-10T17:24:47.416Z,43.29
2019-05-10T17:27:17.890Z,44.48
2019-05-10T17:29:49.759Z,44.20
2019-05-10T17:32:24.636Z,44.10
2019-05-10T17:34:50.677Z,44.42
2019-05-10T17:37:20.059Z,44.55
2019-05-10T17:39:53.614Z,44.21
2019-05-10T17:42:22.599Z,44.62
2019-05-10T17:44:55.408Z,44.98
2019-05-10T17:47:27.060Z,45.01
2019-05-10T17:49:57.275Z,45.01
2019-05-10T17:52:26.743Z,45.25
2019-05-10T17:55:00.684Z,45.55
2019-05-10T17:57:31.842Z,45.67
2019-05-10T18:00:02.230Z,45.71
2019-05-10T18:02:32.948Z,45.72
2019-05-10T18:05:06.095Z,46.18
2019-05-10T18:07:35.431Z,46.15
2019-05-10T18:10:06.714Z,46.62
2019-05-10T18:12:37.311Z,47.04
2019-05-10T18:15:08.748Z,47.10
2019-05-10T18:17:41.124Z,47.32
2019-05-10T18:20:14.872Z,46.92
2019-05-10T18:22:45.464Z,47.15
2019-05-10T18:25:20.223Z,47.60
2019-05-10T18:27:46.554Z,48.23
2019-05-10T18:30:17.121Z,48.38
2019-05-10T18:32:47.527Z,48.87
2019-05-10T18:35:17.238Z,48.75
2019-05-10T18:37:46.685Z,48.77
2019-05-10T18:40:17.600Z,48.84
2019-05-10T18:42:48.001Z,48.76
2019-05-10T18:45:18.367Z,48.93
2019-05-10T18:47:47.938Z,49.68
2019-05-10T18:50:17.868Z,50.20
2019-05-10T18:52:48.274Z,50.49
2019-05-10T18:55:18.776Z,50.75
2019-05-10T18:57:50.665Z,50.79
2019-05-10T19:00:23.712Z,50.08
2019-05-10T19:02:55.625Z,50.15
2019-05-10T19:05:31.428Z,49.83
2019-05-10T19:08:04.252Z,49.95
2019-05-10T19:10:29.366Z,50.02
2019-05-10T19:13:01.267Z,50.49
2019-05-10T19:15:30.182Z,50.41
2019-05-10T19:18:00.608Z,51.27
2019-05-10T19:20:30.979Z,52.00
2019-05-10T19:23:00.400Z,52.72
2019-05-10T19:25:30.750Z,52.92
2019-05-10T19:28:02.649Z,53.49
2019-05-10T19:30:32.023Z,54.21
2019-05-10T19:33:02.378Z,54.89
2019-05-10T19:35:35.905Z,55.12
2019-05-10T19:38:02.843Z,55.65
2019-05-10T19:40:35.240Z,56.20
2019-05-10T19:43:05.790Z,56.30
2019-05-10T19:45:36.287Z,57.01
2019-05-10T19:48:06.597Z,57.12
2019-05-10T19:50:37.100Z,57.52
2019-05-10T19:53:07.621Z,58.17
2019-05-10T19:55:40.783Z,58.63
2019-05-10T19:58:10.242Z,58.63
2019-05-10T20:00:40.815Z,59.00
2019-05-10T20:03:13.410Z,59.24
2019-05-10T20:05:43.814Z,59.05
2019-05-10T20:08:15.269Z,59.56
2019-05-10T20:10:48.179Z,59.42
2019-05-10T20:13:18.602Z,58.62
2019-05-10T20:15:47.983Z,58.11
2019-05-10T20:18:17.562Z,58.28
2019-05-10T20:20:48.234Z,58.48
2019-05-10T20:23:18.859Z,58.89
2019-05-10T20:25:49.611Z,58.56
2019-05-10T20:28:21.711Z,58.66
2019-05-10T20:30:52.155Z,58.85
2019-05-10T20:33:22.570Z,58.30
2019-05-10T20:35:53.070Z,58.09
2019-05-10T20:38:25.013Z,58.13
2019-05-10T20:40:54.739Z,58.70
2019-05-10T20:43:25.120Z,59.02
2019-05-10T20:45:55.629Z,59.97
2019-05-10T20:48:26.036Z,60.16
2019-05-10T20:50:58.006Z,59.97
2019-05-10T20:53:28.411Z,59.96
2019-05-10T20:55:58.940Z,59.94
2019-05-10T20:58:28.285Z,60.92
2019-05-10T21:00:57.870Z,61.47
2019-05-10T21:03:28.886Z,61.32
2019-05-10T21:05:59.918Z,61.69
2019-05-10T21:08:29.508Z,61.85
2019-05-10T21:11:00.046Z,61.27
2019-05-10T21:13:30.527Z,60.39
2019-05-10T21:16:01.363Z,60.60
2019-05-10T21:18:30.744Z,60.68
2019-05-10T21:21:01.199Z,59.54
2019-05-10T21:23:31.765Z,59.88
2019-05-10T21:26:02.641Z,59.91
2019-05-10T21:28:32.986Z,59.95
2019-05-10T21:31:03.460Z,60.78
2019-05-10T21:33:35.530Z,61.07
2019-05-10T21:36:10.427Z,62.83
2019-05-10T21:38:41.840Z,64.07
2019-05-10T21:41:11.453Z,64.19
2019-05-10T21:43:40.976Z,63.75
2019-05-10T21:46:10.274Z,63.38
2019-05-10T21:48:42.660Z,62.85
2019-05-10T21:51:13.077Z,62.44
2019-05-10T21:53:43.479Z,62.21
2019-05-10T21:56:15.433Z,61.55
2019-05-10T21:58:44.852Z,60.98
2019-05-10T22:01:17.419Z,61.00
2019-05-10T22:03:46.919Z,60.63
2019-05-10T22:06:17.802Z,60.91
2019-05-10T22:08:49.743Z,61.03
2019-05-10T22:11:19.450Z,60.80
2019-05-10T22:13:49.793Z,61.26
2019-05-10T22:16:18.272Z,61.90
2019-05-10T22:18:48.433Z,62.03
2019-05-10T22:21:17.769Z,61.67
2019-05-10T22:23:48.130Z,61.85
2019-05-10T22:26:17.512Z,62.29
2019-05-10T22:28:48.427Z,62.77
2019-05-10T22:31:18.964Z,62.74
2019-05-10T22:33:48.517Z,62.59
2019-05-10T22:36:18.861Z,62.52
2019-05-10T22:39:05.325Z,61.79
2019-05-10T22:41:20.671Z,62.25
2019-05-10T22:43:50.184Z,62.83
2019-05-10T22:46:19.628Z,62.43
2019-05-10T22:48:49.010Z,62.96
2019-05-10T22:51:21.680Z,62.84
2019-05-10T22:53:59.543Z,62.52
2019-05-10T22:56:24.456Z,62.56
2019-05-10T22:58:54.852Z,63.53
2019-05-10T23:01:25.196Z,63.70
2019-05-10T23:03:54.678Z,63.43
2019-05-10T23:06:26.395Z,63.47
2019-05-10T23:08:55.788Z,63.04
2019-05-10T23:11:26.149Z,63.34
2019-05-10T23:13:55.512Z,63.25
2019-05-10T23:16:25.054Z,62.94
2019-05-10T23:18:55.606Z,62.58
2019-05-10T23:21:26.206Z,62.67
2019-05-10T23:23:56.715Z,63.13
2019-05-10T23:26:27.121Z,63.64
2019-05-10T23:28:56.500Z,63.94
2019-05-10T23:31:25.889Z,63.64
2019-05-10T23:33:58.442Z,63.65
2019-05-10T23:36:27.848Z,63.99
2019-05-10T23:38:58.217Z,64.02
2019-05-10T23:41:27.729Z,64.31
2019-05-10T23:43:58.290Z,64.04
2019-05-10T23:46:27.723Z,63.97
2019-05-10T23:49:01.505Z,63.84
2019-05-10T23:51:33.997Z,63.76
2019-05-10T23:54:03.367Z,64.21
2019-05-10T23:56:35.334Z,63.96
2019-05-10T23:59:04.735Z,63.63
